Atlanta, IL

9:00 PM CDT on April 25, 2015 (GMT -0500)
Decatur | | Change Station
CLOSE
Current Station
Airport
Location: Decatur,
Elevation: 682 ft
Nearby Weather Stations

Elev 682 ft 39.83 °N, 88.87 °W | Updated 6 minutes ago

Overcast
Overcast
47 °F
Feels Like 47 °F
N
21
Wind Variable Wind from ENE

Today
High -- | Low -- °F
--% Chance of Precip.
Yesterday
High -- | Low -- °F
Precip. -- in
6:04 AM 7:45 PM
Waxing Crescent, 51% visible
Pressure 29.71 in
Visibility 10.0 miles
Clouds Mostly Cloudy 1000 ft
Overcast 1400 ft
Dew Point 43 °F
Humidity 86%
Rainfall 0.00 in
Snow Depth Not available.
UV 0 out of 12
Pollen .90 out of 12
Air Quality Not available.
Flu Activity Regional
METAR KDEC 260154Z 06018KT 10SM BKN010 OVC014 08/06 A2971 RMK AO2 PK WND 05026/0112 CIG 008V012 SLP061 T00830061

More Conditions Fewer Conditions

Pressure 29.71 in
Visibility 10.0 miles
Clouds Mostly Cloudy 1000 ft
Overcast 1400 ft
Dew Point 43 °F
Humidity 86%
Rainfall 0.00 in
Snow Depth Not available.
UV 0 out of 12
Pollen .90 out of 12
Air Quality Not available.
Flu Activity Regional
METAR KDEC 260154Z 06018KT 10SM BKN010 OVC014 08/06 A2971 RMK AO2 PK WND 05026/0112 CIG 008V012 SLP061 T00830061

More Conditions Fewer Conditions

10-Day Weather Forecast

Almanac

Astronomy

Apr. 25, 2015 Rise Set
Actual Time
Civil Twilight
Nautical Twilight
Astronomical Twilight
Moon
Length of Visible Light
Length of Day
Tomorrow will be .
, % of the Moon is Illuminated

Today's Extremes

State Highs State Lows

Community

WunderPhotos

Upload Photos

1,816,899 photos uploaded!

WunderBlogs® & News

Nearby

Air Quality

  Air Quality AQ Index Pollutant
Not available.

Snow Depth

Station Depth Elevation

Earthquake Activity

City Distance Mag. Time & Date
Minimum magnitude displayed is 2.5.

Coastal Water Temperatures

Place Temperature

Stations

Nearby Weather Stations

Station Location Temp. Windchill Dew Point Humidity Wind Precip. Elev Updated Type